createdAt,value
2023-11-17T00:00:07.058Z,78.49
2023-11-17T00:02:56.155Z,77.73
2023-11-17T00:05:23.002Z,76.24
2023-11-17T00:07:52.824Z,75.67
2023-11-17T00:10:19.657Z,75.41
2023-11-17T00:12:46.544Z,75.09
2023-11-17T00:15:13.498Z,74.70
2023-11-17T00:17:40.688Z,74.21
2023-11-17T00:20:08.125Z,74.16
2023-11-17T00:22:35.229Z,74.32
2023-11-17T00:25:02.449Z,74.75
2023-11-17T00:27:29.219Z,75.07
2023-11-17T00:29:56.066Z,75.23
2023-11-17T00:32:22.911Z,75.10
2023-11-17T00:34:49.757Z,74.73
2023-11-17T00:37:16.925Z,74.63
2023-11-17T00:39:43.759Z,74.45
2023-11-17T00:42:11.014Z,74.47
2023-11-17T00:44:37.868Z,74.28
2023-11-17T00:47:04.992Z,74.05
2023-11-17T00:49:31.864Z,73.41
2023-11-17T00:51:58.702Z,72.89
2023-11-17T00:54:27.576Z,72.70
2023-11-17T00:56:55.257Z,72.62
2023-11-17T00:59:22.855Z,72.91
2023-11-17T01:01:50.226Z,73.40
2023-11-17T01:04:17.770Z,73.41
2023-11-17T01:06:45.456Z,73.05
2023-11-17T01:09:13.034Z,72.91
2023-11-17T01:11:39.816Z,72.94
2023-11-17T01:14:08.866Z,72.57
2023-11-17T01:16:35.911Z,72.41
2023-11-17T01:19:03.584Z,72.92
2023-11-17T01:21:31.624Z,73.23
2023-11-17T01:24:01.438Z,74.99
2023-11-17T01:26:28.397Z,75.25
2023-11-17T01:28:56.034Z,75.44
2023-11-17T01:31:23.639Z,75.40
2023-11-17T01:33:50.492Z,75.84
2023-11-17T01:36:21.255Z,75.86
2023-11-17T01:38:53.190Z,76.31
2023-11-17T01:41:22.387Z,76.23
2023-11-17T01:43:49.325Z,76.11
2023-11-17T01:46:16.292Z,76.26
2023-11-17T01:48:43.960Z,76.43
2023-11-17T01:51:11.685Z,76.31
2023-11-17T01:53:38.790Z,76.18
2023-11-17T01:56:06.964Z,76.43
2023-11-17T01:58:33.909Z,76.68
2023-11-17T02:01:01.877Z,76.57
2023-11-17T02:03:28.932Z,76.69
2023-11-17T02:06:08.548Z,76.72
2023-11-17T02:09:15.785Z,76.90
2023-11-17T02:12:05.788Z,77.02
2023-11-17T02:14:37.285Z,77.09
2023-11-17T02:17:06.378Z,77.30
2023-11-17T02:19:37.701Z,77.35
2023-11-17T02:22:13.495Z,76.95
2023-11-17T02:25:02.166Z,77.15
2023-11-17T02:27:51.214Z,77.83
2023-11-17T02:30:20.352Z,77.83
2023-11-17T02:32:50.567Z,77.82
2023-11-17T02:35:18.394Z,78.25
2023-11-17T02:37:50.738Z,78.18
2023-11-17T02:40:22.762Z,78.49
2023-11-17T02:42:52.049Z,78.67
2023-11-17T02:45:21.079Z,79.12
2023-11-17T02:47:49.400Z,79.14
2023-11-17T02:50:22.626Z,79.43
2023-11-17T02:53:07.271Z,79.48
2023-11-17T02:55:36.578Z,79.46
2023-11-17T02:58:04.372Z,79.64
2023-11-17T03:00:32.389Z,79.77
2023-11-17T03:02:59.267Z,79.84
2023-11-17T03:05:28.914Z,79.69
2023-11-17T03:07:55.889Z,79.97
2023-11-17T03:10:22.967Z,80.01
2023-11-17T03:12:55.711Z,80.32
2023-11-17T03:15:23.389Z,79.88
2023-11-17T03:17:52.409Z,79.79
2023-11-17T03:20:19.962Z,80.04
2023-11-17T03:22:47.369Z,80.25
2023-11-17T03:25:18.544Z,80.00
2023-11-17T03:27:50.902Z,80.17
2023-11-17T03:30:18.653Z,80.39
2023-11-17T03:32:53.297Z,80.32
2023-11-17T03:35:21.478Z,80.28
2023-11-17T03:37:49.916Z,80.58
2023-11-17T03:40:19.948Z,80.60
2023-11-17T03:42:47.280Z,80.47
2023-11-17T03:45:15.813Z,81.09
2023-11-17T03:47:45.810Z,81.04
2023-11-17T03:50:14.110Z,81.16
2023-11-17T03:52:41.667Z,81.65
2023-11-17T03:55:09.821Z,81.26
2023-11-17T03:57:37.373Z,81.14
2023-11-17T04:00:06.356Z,81.45
2023-11-17T04:02:39.199Z,81.93
2023-11-17T04:05:06.464Z,81.85
2023-11-17T04:07:33.245Z,81.74
2023-11-17T04:10:00.717Z,82.22
2023-11-17T04:12:27.825Z,81.98
2023-11-17T04:14:54.625Z,82.28
2023-11-17T04:17:21.405Z,82.39
2023-11-17T04:19:48.147Z,82.80
2023-11-17T04:22:16.408Z,82.51
2023-11-17T04:24:43.249Z,82.51
2023-11-17T04:27:11.269Z,82.55
2023-11-17T04:29:38.119Z,82.27
2023-11-17T04:32:05.089Z,82.40
2023-11-17T04:34:32.112Z,82.20
2023-11-17T04:36:59.171Z,82.84
2023-11-17T04:39:27.271Z,82.86
2023-11-17T04:41:54.375Z,82.60
2023-11-17T04:44:21.154Z,82.33
2023-11-17T04:46:48.741Z,82.62
2023-11-17T04:49:15.641Z,82.64
2023-11-17T04:51:48.907Z,82.67
2023-11-17T04:54:15.834Z,82.73
2023-11-17T04:56:42.564Z,83.08
2023-11-17T04:59:12.643Z,83.29
2023-11-17T05:01:40.369Z,83.29
2023-11-17T05:04:07.768Z,83.53
2023-11-17T05:06:36.623Z,83.89
2023-11-17T05:09:12.159Z,84.99
2023-11-17T05:11:39.757Z,84.67
2023-11-17T05:14:06.904Z,85.35
2023-11-17T05:16:38.070Z,85.18
2023-11-17T05:19:05.008Z,85.31
2023-11-17T05:21:33.182Z,85.32
2023-11-17T05:24:03.441Z,85.16
2023-11-17T05:26:30.224Z,85.22
2023-11-17T05:28:57.069Z,85.22
2023-11-17T05:31:26.746Z,85.41
2023-11-17T05:33:53.912Z,85.24
2023-11-17T05:36:23.955Z,85.25
2023-11-17T05:38:50.679Z,85.56
2023-11-17T05:41:19.368Z,85.77
2023-11-17T05:43:47.736Z,85.38
2023-11-17T05:46:15.085Z,85.76
2023-11-17T05:48:41.896Z,85.78
2023-11-17T05:51:10.730Z,85.62
2023-11-17T05:53:38.686Z,85.30
2023-11-17T05:56:08.200Z,85.67
2023-11-17T05:58:35.817Z,85.49
2023-11-17T06:01:04.101Z,85.82
2023-11-17T06:03:35.922Z,85.63
2023-11-17T06:06:03.423Z,85.10
2023-11-17T06:08:34.761Z,85.32
2023-11-17T06:11:02.486Z,85.02
2023-11-17T06:13:29.734Z,85.16
2023-11-17T06:15:57.490Z,85.94
2023-11-17T06:18:24.360Z,86.18
2023-11-17T06:20:51.761Z,86.01
2023-11-17T06:23:18.852Z,85.80
2023-11-17T06:25:46.162Z,85.80
2023-11-17T06:28:23.592Z,85.69
2023-11-17T06:30:52.396Z,85.32
2023-11-17T06:33:21.450Z,85.09
2023-11-17T06:35:51.989Z,84.91
2023-11-17T06:38:21.739Z,84.43
2023-11-17T06:40:49.951Z,84.26
2023-11-17T06:43:24.219Z,84.41
2023-11-17T06:45:53.910Z,84.30
2023-11-17T06:48:22.652Z,83.84
2023-11-17T06:50:51.692Z,83.85
2023-11-17T06:53:23.209Z,84.15
2023-11-17T06:55:52.544Z,84.77
2023-11-17T06:58:21.511Z,85.26
2023-11-17T07:00:49.623Z,84.87
2023-11-17T07:03:18.604Z,85.31
2023-11-17T07:05:48.070Z,84.99
2023-11-17T07:08:19.064Z,85.00
2023-11-17T07:10:48.437Z,84.59
2023-11-17T07:13:19.724Z,84.22
2023-11-17T07:15:49.548Z,84.27
2023-11-17T07:18:17.828Z,84.46
2023-11-17T07:20:48.471Z,84.65
2023-11-17T07:23:20.724Z,84.09
2023-11-17T07:25:59.897Z,83.62
2023-11-17T07:28:29.112Z,83.44
2023-11-17T07:30:57.415Z,81.94
2023-11-17T07:33:28.052Z,81.97
2023-11-17T07:35:56.744Z,81.61
2023-11-17T07:38:26.015Z,81.11
2023-11-17T07:40:56.399Z,80.37
2023-11-17T07:43:25.815Z,80.60
2023-11-17T07:45:55.706Z,79.91
2023-11-17T07:48:23.853Z,80.07
2023-11-17T07:50:56.036Z,80.02
2023-11-17T07:53:24.966Z,80.29
2023-11-17T07:55:56.696Z,80.25
2023-11-17T07:58:28.127Z,80.29
2023-11-17T08:01:01.010Z,80.16
2023-11-17T08:03:34.277Z,79.15
2023-11-17T08:06:05.589Z,78.24
2023-11-17T08:08:33.910Z,78.36
2023-11-17T08:11:06.042Z,78.01
2023-11-17T08:13:35.818Z,77.95
2023-11-17T08:16:07.827Z,78.75
2023-11-17T08:18:39.515Z,79.12
2023-11-17T08:21:10.216Z,78.84
2023-11-17T08:23:43.685Z,78.58
2023-11-17T08:26:17.708Z,78.81
2023-11-17T08:28:52.982Z,78.47
2023-11-17T08:31:25.658Z,78.00
2023-11-17T08:33:56.834Z,77.54
2023-11-17T08:36:28.531Z,77.29
2023-11-17T08:39:04.331Z,75.20
2023-11-17T08:41:41.504Z,74.55
2023-11-17T08:44:11.264Z,73.98
2023-11-17T08:46:39.689Z,74.34
2023-11-17T08:49:08.831Z,73.65
2023-11-17T08:51:38.801Z,73.38
2023-11-17T08:54:07.820Z,73.03
2023-11-17T08:56:37.117Z,73.02
2023-11-17T08:59:07.214Z,73.02
2023-11-17T09:01:35.408Z,73.40
2023-11-17T09:04:04.236Z,74.29
2023-11-17T09:06:34.962Z,74.37
2023-11-17T09:09:16.112Z,74.56
2023-11-17T09:11:53.012Z,74.11
2023-11-17T09:14:22.084Z,72.98
2023-11-17T09:16:50.803Z,73.67
2023-11-17T09:19:19.289Z,73.67
2023-11-17T09:21:49.043Z,73.41
2023-11-17T09:24:18.090Z,73.25
2023-11-17T09:26:48.895Z,72.74
2023-11-17T09:29:21.080Z,72.94
2023-11-17T09:31:54.252Z,73.23
2023-11-17T09:34:24.339Z,72.99
2023-11-17T09:36:56.690Z,72.41
2023-11-17T09:39:25.090Z,72.62
2023-11-17T09:41:57.793Z,73.01
2023-11-17T09:44:28.838Z,72.19
2023-11-17T09:47:23.280Z,72.58
2023-11-17T09:49:54.554Z,73.88
2023-11-17T09:52:23.734Z,74.39
2023-11-17T09:54:53.342Z,74.44
2023-11-17T09:57:22.699Z,74.40
2023-11-17T09:59:52.840Z,74.42
2023-11-17T10:02:22.500Z,74.61
2023-11-17T10:04:56.229Z,74.76
2023-11-17T10:07:26.301Z,74.64
2023-11-17T10:09:59.009Z,74.84
2023-11-17T10:12:28.887Z,74.43
2023-11-17T10:14:58.317Z,74.86
2023-11-17T10:17:30.290Z,74.87
2023-11-17T10:20:05.005Z,75.10
2023-11-17T10:22:34.470Z,75.40
2023-11-17T10:25:03.725Z,76.59
2023-11-17T10:27:32.485Z,77.19
2023-11-17T10:30:01.640Z,77.65
2023-11-17T10:32:48.545Z,77.44
2023-11-17T10:35:32.490Z,77.52
2023-11-17T10:38:03.011Z,77.79
2023-11-17T10:40:33.021Z,77.97
2023-11-17T10:43:06.403Z,78.14
2023-11-17T10:45:39.113Z,78.07
2023-11-17T10:48:09.010Z,77.82
2023-11-17T10:50:40.040Z,77.75
2023-11-17T10:53:21.771Z,77.75
2023-11-17T10:55:54.896Z,77.43
2023-11-17T10:58:23.095Z,77.88
2023-11-17T11:00:52.101Z,78.17
2023-11-17T11:03:24.039Z,77.45
2023-11-17T11:05:53.586Z,77.00
2023-11-17T11:08:23.817Z,77.10
2023-11-17T11:10:56.522Z,76.73
2023-11-17T11:13:29.347Z,76.66
2023-11-17T11:16:08.798Z,76.27
2023-11-17T11:18:47.159Z,76.53
2023-11-17T11:21:19.648Z,76.13
2023-11-17T11:23:50.429Z,76.67
2023-11-17T11:26:20.011Z,76.71
2023-11-17T11:28:49.503Z,77.07
2023-11-17T11:31:20.938Z,76.87
2023-11-17T11:33:50.132Z,76.85
2023-11-17T11:36:19.863Z,76.63
2023-11-17T11:38:48.980Z,76.03
2023-11-17T11:41:23.539Z,76.02
2023-11-17T11:43:53.562Z,75.61
2023-11-17T11:46:25.361Z,75.78
2023-11-17T11:49:01.525Z,75.24
2023-11-17T11:51:32.848Z,75.05
2023-11-17T11:54:04.870Z,74.38
2023-11-17T11:56:42.510Z,74.28
2023-11-17T11:59:11.944Z,74.18
2023-11-17T12:01:43.829Z,73.63
2023-11-17T12:04:12.271Z,73.32
2023-11-17T12:06:50.313Z,73.31
2023-11-17T12:09:23.129Z,73.51
2023-11-17T12:11:53.089Z,73.65
2023-11-17T12:14:32.704Z,73.79
2023-11-17T12:17:03.034Z,73.96
2023-11-17T12:19:33.228Z,73.74
2023-11-17T12:22:02.961Z,73.82
2023-11-17T12:24:36.458Z,74.09
2023-11-17T12:27:07.096Z,74.10
2023-11-17T12:29:40.281Z,74.14
2023-11-17T12:32:09.887Z,73.61
2023-11-17T12:34:43.599Z,73.75
2023-11-17T12:37:14.612Z,74.33
2023-11-17T12:39:46.325Z,74.59
2023-11-17T12:42:20.463Z,74.39
2023-11-17T12:44:49.070Z,74.58
2023-11-17T12:47:25.731Z,74.89
2023-11-17T12:50:00.556Z,75.19
2023-11-17T12:52:29.597Z,75.25
2023-11-17T12:55:08.958Z,75.32
2023-11-17T12:57:40.374Z,75.25
2023-11-17T13:00:16.955Z,75.68
2023-11-17T13:02:45.445Z,76.00
2023-11-17T13:05:16.023Z,76.15
2023-11-17T13:07:47.472Z,76.43
2023-11-17T13:10:16.771Z,76.46
2023-11-17T13:12:48.968Z,76.15
2023-11-17T13:15:17.626Z,76.17
2023-11-17T13:17:46.476Z,75.59
2023-11-17T13:20:15.877Z,76.31
2023-11-17T13:22:45.109Z,76.58
2023-11-17T13:25:13.551Z,77.48
2023-11-17T13:27:44.500Z,77.53
2023-11-17T13:30:15.359Z,77.27
2023-11-17T13:32:49.033Z,78.53
2023-11-17T13:35:21.770Z,78.76
2023-11-17T13:37:52.520Z,79.67
2023-11-17T13:40:32.630Z,79.82
2023-11-17T13:43:00.953Z,79.88
2023-11-17T13:45:34.134Z,79.99
2023-11-17T13:48:06.424Z,80.07
2023-11-17T13:50:38.391Z,80.32
2023-11-17T13:53:12.357Z,80.83
2023-11-17T13:55:43.999Z,81.27
2023-11-17T13:58:12.979Z,81.41
2023-11-17T14:00:43.907Z,81.29
2023-11-17T14:03:13.257Z,80.89
2023-11-17T14:05:43.616Z,80.89
2023-11-17T14:08:14.049Z,81.11
2023-11-17T14:10:42.933Z,80.93
2023-11-17T14:13:11.509Z,80.59
2023-11-17T14:15:48.315Z,80.94
2023-11-17T14:18:23.300Z,80.98
2023-11-17T14:20:51.545Z,81.50
2023-11-17T14:23:19.718Z,81.43
2023-11-17T14:25:48.737Z,81.68
2023-11-17T14:28:18.469Z,81.94
2023-11-17T14:30:47.265Z,81.93
2023-11-17T14:33:15.840Z,82.10
2023-11-17T14:35:44.319Z,82.17
2023-11-17T14:38:13.117Z,81.74
2023-11-17T14:40:41.526Z,81.69
2023-11-17T14:43:12.628Z,81.59
2023-11-17T14:45:41.748Z,82.04
2023-11-17T14:48:10.532Z,82.60
2023-11-17T14:50:38.763Z,82.97
2023-11-17T14:53:07.664Z,83.49
2023-11-17T14:55:37.527Z,83.89
2023-11-17T14:58:07.974Z,83.83
2023-11-17T15:00:40.802Z,84.09
2023-11-17T15:03:10.526Z,84.44
2023-11-17T15:05:43.557Z,84.12
2023-11-17T15:08:13.427Z,84.58
2023-11-17T15:10:43.074Z,84.59
2023-11-17T15:13:11.984Z,85.04
2023-11-17T15:15:43.258Z,84.54
2023-11-17T15:18:13.985Z,84.92
2023-11-17T15:20:43.792Z,85.13
2023-11-17T15:23:12.593Z,85.01
2023-11-17T15:25:41.680Z,84.77
2023-11-17T15:28:21.207Z,84.64
2023-11-17T15:30:55.559Z,84.70
2023-11-17T15:33:24.190Z,85.05
2023-11-17T15:35:52.358Z,85.34
2023-11-17T15:38:27.300Z,85.70
2023-11-17T15:40:58.414Z,85.82
2023-11-17T15:43:31.310Z,85.73
2023-11-17T15:46:01.949Z,85.78
2023-11-17T15:48:31.406Z,85.59
2023-11-17T15:51:04.503Z,85.86
2023-11-17T15:53:34.003Z,85.93
2023-11-17T15:56:04.113Z,85.76
2023-11-17T15:58:32.490Z,85.82
2023-11-17T16:01:05.604Z,86.12
2023-11-17T16:03:36.573Z,86.36
2023-11-17T16:06:08.039Z,86.45
2023-11-17T16:08:37.749Z,86.68
2023-11-17T16:11:13.144Z,86.86
2023-11-17T16:13:42.875Z,86.94
2023-11-17T16:16:14.522Z,87.04
2023-11-17T16:18:44.525Z,87.17
2023-11-17T16:21:12.705Z,87.00
2023-11-17T16:23:40.966Z,86.61
2023-11-17T16:26:12.475Z,86.40
2023-11-17T16:28:41.069Z,86.39
2023-11-17T16:31:14.205Z,86.82
2023-11-17T16:33:43.688Z,86.55
2023-11-17T16:36:14.968Z,87.01
2023-11-17T16:38:44.389Z,87.26
2023-11-17T16:41:12.714Z,87.29
2023-11-17T16:43:40.862Z,87.45
2023-11-17T16:46:12.774Z,87.24
2023-11-17T16:48:41.785Z,87.52
2023-11-17T16:51:14.107Z,87.63
2023-11-17T16:53:42.579Z,87.82
2023-11-17T16:56:10.800Z,87.74
2023-11-17T16:58:41.948Z,87.70
2023-11-17T17:01:10.975Z,87.63
2023-11-17T17:03:40.165Z,87.26
2023-11-17T17:06:14.464Z,87.19
2023-11-17T17:08:42.758Z,86.94
2023-11-17T17:11:10.878Z,87.13
2023-11-17T17:13:41.565Z,87.27
2023-11-17T17:16:10.431Z,87.79
2023-11-17T17:18:41.055Z,88.01
2023-11-17T17:21:09.357Z,88.06
2023-11-17T17:23:37.638Z,88.51
2023-11-17T17:26:06.523Z,88.55
2023-11-17T17:28:35.723Z,88.30
2023-11-17T17:31:04.722Z,88.06
2023-11-17T17:33:33.226Z,87.35
2023-11-17T17:36:02.891Z,86.74
2023-11-17T17:38:34.768Z,86.69
2023-11-17T17:41:03.031Z,86.95
2023-11-17T17:43:31.209Z,86.75
2023-11-17T17:46:00.193Z,86.83
2023-11-17T17:48:28.318Z,87.18
2023-11-17T17:50:58.398Z,87.05
2023-11-17T17:53:27.080Z,87.30
2023-11-17T17:55:55.175Z,87.05
2023-11-17T17:58:23.554Z,87.45
2023-11-17T18:00:51.848Z,87.36
2023-11-17T18:03:21.187Z,87.43
2023-11-17T18:05:51.244Z,87.67
2023-11-17T18:08:19.566Z,87.94
2023-11-17T18:10:47.816Z,87.64
2023-11-17T18:13:16.045Z,87.60
2023-11-17T18:15:44.813Z,88.07
2023-11-17T18:18:15.195Z,88.02
2023-11-17T18:20:44.135Z,87.81
2023-11-17T18:23:12.270Z,87.46
2023-11-17T18:25:40.369Z,87.35
2023-11-17T18:28:10.857Z,87.34
2023-11-17T18:30:41.793Z,87.46
2023-11-17T18:33:11.507Z,87.72
2023-11-17T18:35:39.849Z,87.73
2023-11-17T18:38:07.883Z,87.61
2023-11-17T18:40:37.474Z,88.08
2023-11-17T18:43:06.836Z,88.30
2023-11-17T18:45:35.001Z,88.51
2023-11-17T18:48:03.327Z,88.56
2023-11-17T18:50:41.235Z,88.32
2023-11-17T18:53:09.616Z,88.78
2023-11-17T18:55:38.598Z,89.00
2023-11-17T18:58:06.849Z,89.06
2023-11-17T19:00:36.475Z,89.29
2023-11-17T19:03:04.733Z,89.28
2023-11-17T19:05:35.456Z,89.26
2023-11-17T19:08:04.888Z,89.44
2023-11-17T19:10:33.100Z,89.82
2023-11-17T19:13:02.125Z,89.66
2023-11-17T19:15:30.444Z,89.63
2023-11-17T19:17:59.421Z,89.76
2023-11-17T19:20:28.210Z,89.74
2023-11-17T19:22:56.488Z,89.61
2023-11-17T19:25:25.594Z,89.38
2023-11-17T19:27:56.040Z,89.27
2023-11-17T19:30:24.114Z,89.20
2023-11-17T19:32:57.319Z,89.30
2023-11-17T19:35:25.776Z,89.77
2023-11-17T19:37:54.041Z,90.19
2023-11-17T19:40:25.815Z,90.36
2023-11-17T19:42:53.982Z,90.10
2023-11-17T19:45:22.224Z,89.65
2023-11-17T19:47:51.298Z,89.76
2023-11-17T19:50:20.888Z,89.99
2023-11-17T19:52:51.310Z,89.94
2023-11-17T19:55:27.795Z,90.08
2023-11-17T19:57:56.987Z,90.17
2023-11-17T20:00:26.681Z,90.32
2023-11-17T20:02:57.052Z,90.43
2023-11-17T20:05:29.565Z,91.12
2023-11-17T20:08:00.570Z,91.05
2023-11-17T20:10:31.404Z,91.13
2023-11-17T20:12:59.915Z,91.43
2023-11-17T20:15:30.103Z,91.01
2023-11-17T20:17:59.279Z,91.48
2023-11-17T20:20:29.987Z,91.31
2023-11-17T20:22:59.427Z,91.67
2023-11-17T20:25:29.554Z,91.73
2023-11-17T20:28:01.263Z,91.38
2023-11-17T20:30:30.209Z,91.38
2023-11-17T20:32:59.200Z,91.08
2023-11-17T20:35:29.605Z,90.54
2023-11-17T20:37:58.347Z,90.43
2023-11-17T20:40:26.562Z,90.13
2023-11-17T20:42:55.837Z,90.12
2023-11-17T20:45:25.093Z,90.71
2023-11-17T20:47:53.911Z,90.94
2023-11-17T20:50:26.235Z,89.25
2023-11-17T20:52:55.097Z,88.62
2023-11-17T20:55:24.432Z,89.10
2023-11-17T20:57:57.652Z,89.74
2023-11-17T21:00:27.124Z,89.51
2023-11-17T21:02:59.492Z,89.90
2023-11-17T21:05:29.866Z,90.76
2023-11-17T21:07:58.857Z,91.00
2023-11-17T21:10:28.244Z,91.34
2023-11-17T21:12:57.365Z,91.73
2023-11-17T21:15:28.125Z,91.91
2023-11-17T21:17:56.969Z,91.59
2023-11-17T21:20:25.360Z,91.34
2023-11-17T21:22:53.944Z,91.65
2023-11-17T21:25:23.664Z,91.46
2023-11-17T21:27:53.854Z,91.03
2023-11-17T21:30:24.903Z,90.99
2023-11-17T21:32:55.047Z,90.71
2023-11-17T21:35:23.942Z,90.30
2023-11-17T21:37:53.935Z,89.55
2023-11-17T21:40:23.653Z,90.26
2023-11-17T21:42:52.974Z,90.58
2023-11-17T21:45:23.835Z,90.88
2023-11-17T21:47:54.904Z,90.72
2023-11-17T21:50:25.383Z,90.05
2023-11-17T21:52:57.482Z,89.08
2023-11-17T21:55:31.796Z,88.72
2023-11-17T21:57:59.839Z,88.66
2023-11-17T22:00:28.851Z,88.62
2023-11-17T22:02:57.525Z,88.31
2023-11-17T22:05:26.930Z,88.37
2023-11-17T22:07:55.256Z,88.50
2023-11-17T22:10:23.545Z,88.47
2023-11-17T22:12:51.756Z,88.71
2023-11-17T22:15:20.917Z,89.17
2023-11-17T22:17:50.236Z,88.97
2023-11-17T22:20:20.422Z,88.76
2023-11-17T22:22:52.013Z,89.16
2023-11-17T22:25:22.826Z,89.56
2023-11-17T22:27:53.414Z,89.54
2023-11-17T22:30:25.838Z,89.80
2023-11-17T22:32:56.592Z,89.68
2023-11-17T22:35:26.529Z,90.06
2023-11-17T22:37:55.697Z,89.55
2023-11-17T22:40:25.098Z,88.83
2023-11-17T22:42:54.531Z,88.77
2023-11-17T22:45:23.717Z,88.98
2023-11-17T22:47:53.273Z,89.07
2023-11-17T22:50:23.125Z,89.26
2023-11-17T22:52:55.696Z,89.41
2023-11-17T22:55:24.455Z,89.58
2023-11-17T22:57:53.237Z,89.41
2023-11-17T23:00:39.950Z,89.38
2023-11-17T23:03:13.267Z,89.80
2023-11-17T23:05:44.817Z,89.89
2023-11-17T23:08:13.853Z,90.05
2023-11-17T23:10:43.059Z,89.54
2023-11-17T23:13:13.247Z,89.47
2023-11-17T23:15:42.374Z,89.46
2023-11-17T23:18:14.399Z,89.28
2023-11-17T23:20:43.983Z,89.30
2023-11-17T23:23:13.133Z,89.12
2023-11-17T23:25:41.621Z,88.64
2023-11-17T23:28:11.009Z,88.45
2023-11-17T23:30:41.374Z,88.25
2023-11-17T23:33:10.139Z,88.27
2023-11-17T23:35:38.785Z,88.18
2023-11-17T23:38:09.317Z,87.99
2023-11-17T23:40:37.712Z,87.70
2023-11-17T23:43:05.984Z,87.69
2023-11-17T23:45:34.595Z,87.50
2023-11-17T23:48:03.794Z,87.78
2023-11-17T23:50:36.109Z,87.87
2023-11-17T23:53:07.279Z,87.70
2023-11-17T23:55:36.710Z,87.92
2023-11-17T23:58:05.414Z,87.51
